Time;durP1;ratioP1;P1;durP2;ratioP2;P2;SDS_P1;SDS_P2;PMS_P1;PMS_P2;Temp;Humidity;BMP_temperature;BMP_pressure;BME280_temperature;BME280_humidity;BME280_pressure;Samples;Min_cycle;Max_cycle;Signal;HPM_P1;HPM_P2
2023/08/26 01:30:13;;;;;;;1.92;1.83;;;;;;;;;;6277080;22;20186;-95
2023/08/26 01:33:07;;;;;;;;;;;;;;;;;;;;;
2023/08/26 01:43:08;;;;;;;3.47;3.17;;;;;;;;;;6027339;23;20205;-94
2023/08/26 01:45:40;;;;;;;2.38;2.17;;;;;;;;;;6177333;23;20154;-95
2023/08/26 01:48:10;;;;;;;2.20;2.10;;;;;;;;;;6271290;22;20160;-95
2023/08/26 01:50:41;;;;;;;1.90;1.80;;;;;;;;;;6307251;22;20141;-95
2023/08/26 01:53:18;;;;;;;1.85;1.75;;;;;;;;;;6307034;22;20156;-93
2023/08/26 01:55:49;;;;;;;3.30;2.15;;;;;;;;;;6307330;22;20148;-94
2023/08/26 01:58:23;;;;;;;3.10;2.72;;;;;;;;;;6307428;22;20147;-94
2023/08/26 02:01:01;;;;;;;3.15;2.95;;;;;;;;;;6307125;22;20162;-94
2023/08/26 02:03:33;;;;;;;2.75;2.55;;;;;;;;;;6307058;22;20171;-94
2023/08/26 02:06:09;;;;;;;3.08;2.88;;;;;;;;;;6307222;22;20171;-96
2023/08/26 02:08:42;;;;;;;3.20;2.90;;;;;;;;;;6307010;22;20182;-95
2023/08/26 02:11:10;;;;;;;2.50;2.25;;;;;;;;;;6306909;22;20147;-95
2023/08/26 02:13:38;;;;;;;3.25;2.30;;;;;;;;;;6306221;22;20140;-94
2023/08/26 02:16:07;;;;;;;1.98;1.88;;;;;;;;;;6307062;22;20286;-95
2023/08/26 02:18:35;;;;;;;2.10;2.00;;;;;;;;;;6306955;22;20171;-94
2023/08/26 02:21:03;;;;;;;2.40;2.30;;;;;;;;;;6306673;22;20156;-94
2023/08/26 02:23:30;;;;;;;2.80;2.60;;;;;;;;;;6306976;22;20144;-95
2023/08/26 02:26:01;;;;;;;2.70;2.50;;;;;;;;;;6307056;22;20144;-95
2023/08/26 02:28:28;;;;;;;2.42;2.25;;;;;;;;;;6306788;22;20144;-94
2023/08/26 02:30:56;;;;;;;1.85;1.75;;;;;;;;;;6306959;22;20141;-94
2023/08/26 02:33:26;;;;;;;2.17;2.03;;;;;;;;;;6306859;22;20154;-94
2023/08/26 02:35:54;;;;;;;4.50;3.83;;;;;;;;;;6307021;22;20144;-95
2023/08/26 02:38:22;;;;;;;4.40;3.17;;;;;;;;;;6306511;22;20151;-95
2023/08/26 02:40:53;;;;;;;2.42;2.28;;;;;;;;;;6306499;22;20148;-95
2023/08/26 02:43:21;;;;;;;2.15;2.05;;;;;;;;;;6306748;22;20149;-95
2023/08/26 02:45:53;;;;;;;1.85;1.75;;;;;;;;;;6306835;22;20346;-95
2023/08/26 02:48:21;;;;;;;3.00;2.80;;;;;;;;;;6306778;22;20152;-94
2023/08/26 02:50:57;;;;;;;3.58;3.00;;;;;;;;;;6306512;22;20149;-94
2023/08/26 02:53:26;;;;;;;1.92;1.83;;;;;;;;;;6306845;22;20151;-93
2023/08/26 02:55:53;;;;;;;2.65;2.35;;;;;;;;;;6306770;22;20187;-95
2023/08/26 02:58:21;;;;;;;2.30;2.10;;;;;;;;;;6306697;22;20145;-94
2023/08/26 03:00:50;;;;;;;3.83;2.70;;;;;;;;;;6306520;22;20152;-94
2023/08/26 03:03:18;;;;;;;2.63;2.42;;;;;;;;;;6301734;22;20160;-96
2023/08/26 03:05:45;;;;;;;2.60;2.40;;;;;;;;;;6300781;22;20145;-95
2023/08/26 03:08:15;;;;;;;2.15;2.05;;;;;;;;;;6300892;22;20148;-95
2023/08/26 03:10:42;;;;;;;2.03;1.92;;;;;;;;;;6301003;22;20149;-95
2023/08/26 03:13:10;;;;;;;1.50;1.40;;;;;;;;;;6300772;22;20145;-96
2023/08/26 03:15:38;;;;;;;1.92;1.83;;;;;;;;;;6301009;22;20149;-95
2023/08/26 03:18:07;;;;;;;6.18;3.08;;;;;;;;;;6300887;22;20148;-95
2023/08/26 03:20:34;;;;;;;2.80;2.60;;;;;;;;;;6300912;22;20159;-94
2023/08/26 03:23:02;;;;;;;3.55;3.17;;;;;;;;;;6300630;22;20177;-94
2023/08/26 03:25:32;;;;;;;2.85;2.65;;;;;;;;;;6300834;22;20161;-94
2023/08/26 03:27:59;;;;;;;1.80;1.70;;;;;;;;;;6301433;22;20148;-94
2023/08/26 03:30:27;;;;;;;1.92;1.83;;;;;;;;;;6304065;22;20157;-95
2023/08/26 03:32:55;;;;;;;2.10;2.00;;;;;;;;;;6300472;22;20145;-95
2023/08/26 03:35:23;;;;;;;1.80;1.70;;;;;;;;;;6300174;22;20148;-94
2023/08/26 03:37:50;;;;;;;2.30;2.10;;;;;;;;;;6300392;22;20145;-94
2023/08/26 03:40:22;;;;;;;3.40;3.08;;;;;;;;;;6300403;22;20171;-94
2023/08/26 03:42:51;;;;;;;3.10;2.90;;;;;;;;;;6300262;22;20176;-95
2023/08/26 03:45:19;;;;;;;3.47;3.17;;;;;;;;;;6300625;22;20145;-95
2023/08/26 03:47:47;;;;;;;4.45;3.08;;;;;;;;;;6300355;22;20149;-94
2023/08/26 03:50:15;;;;;;;2.78;2.58;;;;;;;;;;6300842;22;20148;-95
2023/08/26 03:52:43;;;;;;;3.35;3.15;;;;;;;;;;6300400;22;20144;-94
2023/08/26 03:55:13;;;;;;;3.45;2.92;;;;;;;;;;6301081;22;20208;-95
2023/08/26 03:57:42;;;;;;;3.65;3.35;;;;;;;;;;6302281;22;20149;-94
2023/08/26 04:00:14;;;;;;;3.08;2.72;;;;;;;;;;6304737;22;20168;-95
2023/08/26 04:02:43;;;;;;;3.50;3.20;;;;;;;;;;6305936;22;20220;-95
2023/08/26 04:05:12;;;;;;;3.10;2.80;;;;;;;;;;6306015;22;20204;-95
2023/08/26 04:07:40;;;;;;;3.80;3.42;;;;;;;;;;6304824;22;20145;-95
2023/08/26 04:10:10;;;;;;;3.10;2.90;;;;;;;;;;6306153;22;20145;-94
2023/08/26 04:12:43;;;;;;;3.90;3.47;;;;;;;;;;6305844;22;20172;-95
2023/08/26 04:15:16;;;;;;;2.70;2.42;;;;;;;;;;6306207;22;20196;-96
2023/08/26 04:17:44;;;;;;;2.90;2.65;;;;;;;;;;6306119;22;20148;-94
2023/08/26 04:20:13;;;;;;;3.10;2.90;;;;;;;;;;6305420;22;20204;-95
2023/08/26 04:22:42;;;;;;;3.55;3.25;;;;;;;;;;6305533;22;20176;-94
2023/08/26 04:25:10;;;;;;;3.15;2.83;;;;;;;;;;6305973;22;20148;-95
2023/08/26 04:27:41;;;;;;;2.50;2.30;;;;;;;;;;6305760;22;20164;-95
2023/08/26 04:30:15;;;;;;;2.58;2.38;;;;;;;;;;6305884;22;20175;-95
2023/08/26 04:32:44;;;;;;;2.90;2.70;;;;;;;;;;6305655;22;20145;-95
2023/08/26 04:35:18;;;;;;;2.60;2.40;;;;;;;;;;6306008;22;20164;-96
2023/08/26 04:37:49;;;;;;;2.65;2.45;;;;;;;;;;6305521;22;20148;-95
2023/08/26 04:40:22;;;;;;;2.42;2.28;;;;;;;;;;6306104;22;20149;-95
2023/08/26 04:42:51;;;;;;;3.33;3.08;;;;;;;;;;6306216;22;20195;-95
2023/08/26 04:45:21;;;;;;;3.10;2.90;;;;;;;;;;6306803;22;20183;-96
2023/08/26 04:47:49;;;;;;;3.40;3.20;;;;;;;;;;6306762;22;20168;-94
2023/08/26 04:50:18;;;;;;;2.60;2.40;;;;;;;;;;6306346;22;20145;-95
2023/08/26 04:52:50;;;;;;;2.88;2.67;;;;;;;;;;6306163;22;20141;-95
2023/08/26 04:55:18;;;;;;;2.85;2.65;;;;;;;;;;6306098;22;20142;-95
2023/08/26 04:57:46;;;;;;;2.28;2.10;;;;;;;;;;6305709;22;20175;-94
2023/08/26 05:00:16;;;;;;;2.78;2.25;;;;;;;;;;6305997;22;20168;-94
2023/08/26 05:02:49;;;;;;;3.20;2.67;;;;;;;;;;6305834;22;20176;-95
2023/08/26 05:05:18;;;;;;;3.00;2.80;;;;;;;;;;6306027;22;20160;-96
2023/08/26 05:07:47;;;;;;;4.00;3.67;;;;;;;;;;6305694;22;20149;-95
2023/08/26 05:10:15;;;;;;;3.45;3.15;;;;;;;;;;6305804;22;20144;-94
2023/08/26 05:12:46;;;;;;;3.67;3.38;;;;;;;;;;6305591;22;20164;-95
2023/08/26 05:15:14;;;;;;;3.33;3.08;;;;;;;;;;6305746;22;20149;-95
2023/08/26 05:17:43;;;;;;;2.70;2.50;;;;;;;;;;6305654;22;20159;-94
2023/08/26 05:20:12;;;;;;;2.78;2.33;;;;;;;;;;6305663;22;20158;-95
2023/08/26 05:22:42;;;;;;;2.20;2.00;;;;;;;;;;6305235;22;20188;-94
2023/08/26 05:25:26;;;;;;;2.60;2.40;;;;;;;;;;6305926;22;20160;-95
2023/08/26 05:27:55;;;;;;;3.38;3.15;;;;;;;;;;6306117;22;20151;-95
2023/08/26 05:30:31;;;;;;;2.78;2.58;;;;;;;;;;6305956;22;20183;-95
2023/08/26 05:33:00;;;;;;;3.10;2.88;;;;;;;;;;6305472;22;20164;-93
2023/08/26 05:35:28;;;;;;;3.13;2.92;;;;;;;;;;6305667;22;20155;-94
2023/08/26 05:37:58;;;;;;;5.00;4.60;;;;;;;;;;6305333;22;20149;-95
2023/08/26 05:40:28;;;;;;;3.58;3.05;;;;;;;;;;6305178;22;20145;-95
2023/08/26 05:42:57;;;;;;;4.70;4.28;;;;;;;;;;6305265;22;20176;-94
2023/08/26 05:45:25;;;;;;;5.07;4.65;;;;;;;;;;6305452;22;20175;-94
2023/08/26 05:47:55;;;;;;;3.97;3.67;;;;;;;;;;6305982;22;20148;-95
2023/08/26 05:50:30;;;;;;;3.95;3.55;;;;;;;;;;6307299;22;20148;-96
2023/08/26 05:53:18;;;;;;;3.60;3.38;;;;;;;;;;6307084;22;20140;-94
2023/08/26 05:56:00;;;;;;;4.63;4.22;;;;;;;;;;6307817;22;20144;-94
2023/08/26 05:58:36;;;;;;;5.28;4.75;;;;;;;;;;6307812;22;20198;-95
2023/08/26 06:01:19;;;;;;;4.00;3.70;;;;;;;;;;6307516;22;20196;-95
2023/08/26 06:04:12;;;;;;;4.53;4.13;;;;;;;;;;6307500;22;20157;-94
2023/08/26 06:10:15;;;;;;;5.45;4.95;;;;;;;;;;6305834;22;20183;-94
2023/08/26 06:13:46;;;;;;;5.18;4.22;;;;;;;;;;6307267;22;20149;-95
2023/08/26 06:20:10;;;;;;;5.78;5.28;;;;;;;;;;6267624;22;20149;-95
2023/08/26 06:23:40;;;;;;;5.25;4.78;;;;;;;;;;6241466;22;20171;-95
2023/08/26 06:30:08;;;;;;;;;;;;;;;;;;;;;
2023/08/26 06:40:31;;;;;;;;;;;;;;;;;;;;;
2023/08/26 06:43:20;;;;;;;2.90;2.70;;;;;;;;;;6218120;22;20143;-95
2023/08/26 06:52:54;;;;;;;2.50;2.30;;;;;;;;;;6096708;23;20153;-93
2023/08/26 06:55:54;;;;;;;;;;;;;;;;;;;;;
2023/08/26 06:59:22;;;;;;;;;;;;;;;;;;;;;
2023/08/26 07:05:02;;;;;;;4.15;3.13;;;;;;;;;;6297629;22;20172;-93
2023/08/26 07:07:29;;;;;;;2.15;2.05;;;;;;;;;;6306586;22;20145;-94
2023/08/26 07:09:57;;;;;;;2.33;2.13;;;;;;;;;;6306617;22;20144;-94
2023/08/26 07:12:25;;;;;;;2.95;1.90;;;;;;;;;;6306040;22;20145;-94
2023/08/26 07:14:55;;;;;;;4.05;1.90;;;;;;;;;;6306328;22;20141;-94
2023/08/26 07:17:24;;;;;;;1.90;1.80;;;;;;;;;;6306324;22;20155;-93
2023/08/26 07:19:52;;;;;;;1.95;1.77;;;;;;;;;;6306455;22;20187;-93
2023/08/26 07:22:20;;;;;;;1.92;1.83;;;;;;;;;;6305663;22;20156;-92
2023/08/26 07:24:49;;;;;;;2.15;1.65;;;;;;;;;;6306358;22;20179;-94
2023/08/26 07:27:18;;;;;;;1.67;1.58;;;;;;;;;;6306329;22;20144;-94
2023/08/26 07:29:47;;;;;;;1.77;1.67;;;;;;;;;;6306246;22;20153;-94
2023/08/26 07:32:16;;;;;;;1.92;1.58;;;;;;;;;;6305958;22;20151;-94
2023/08/26 07:34:45;;;;;;;1.60;1.02;;;;;;;;;;6306310;22;20148;-94
2023/08/26 07:37:13;;;;;;;1.55;1.45;;;;;;;;;;6306304;22;20153;-94
2023/08/26 07:39:40;;;;;;;2.63;1.50;;;;;;;;;;6306319;22;20148;-94
2023/08/26 07:42:08;;;;;;;2.25;1.58;;;;;;;;;;6305892;22;20159;-93
2023/08/26 07:44:36;;;;;;;2.00;1.42;;;;;;;;;;6305741;22;20160;-92
2023/08/26 07:47:04;;;;;;;1.35;1.25;;;;;;;;;;6306234;22;20145;-93
2023/08/26 07:49:32;;;;;;;1.13;1.10;;;;;;;;;;6306094;22;20141;-93
2023/08/26 07:52:01;;;;;;;2.65;1.33;;;;;;;;;;6279184;22;20141;-92
2023/08/26 07:54:28;;;;;;;1.17;1.13;;;;;;;;;;6305926;22;20160;-94
2023/08/26 07:56:57;;;;;;;1.42;1.33;;;;;;;;;;6306060;22;20144;-93
2023/08/26 07:59:24;;;;;;;1.52;0.95;;;;;;;;;;6305977;22;20175;-94
2023/08/26 08:01:52;;;;;;;1.75;1.27;;;;;;;;;;6305888;22;20145;-93
2023/08/26 08:04:20;;;;;;;1.25;1.20;;;;;;;;;;6305819;22;20157;-94
2023/08/26 08:06:47;;;;;;;0.90;0.90;;;;;;;;;;6306095;22;20148;-94
2023/08/26 08:09:16;;;;;;;1.00;1.00;;;;;;;;;;6305852;22;20149;-92
2023/08/26 08:11:44;;;;;;;1.73;1.13;;;;;;;;;;6305236;22;20163;-92
2023/08/26 08:14:13;;;;;;;1.02;0.90;;;;;;;;;;6305883;22;20148;-94
2023/08/26 08:16:40;;;;;;;1.25;1.15;;;;;;;;;;6305898;22;20148;-93
2023/08/26 08:19:08;;;;;;;3.13;1.67;;;;;;;;;;6305852;22;20151;-92
2023/08/26 09:10:49;;;;;;;1.10;1.08;;;;;;;;;;6201036;22;20163;-94
2023/08/26 09:16:01;;;;;;;1.00;0.98;;;;;;;;;;6274360;23;20168;-96
2023/08/26 09:18:30;;;;;;;2.10;1.67;;;;;;;;;;6275535;23;20149;-95
2023/08/26 09:27:24;;;;;;;1.95;1.30;;;;;;;;;;6278171;23;20156;-95
2023/08/26 09:36:53;;;;;;;0.95;0.95;;;;;;;;;;6279325;22;20195;-96
2023/08/26 09:58:10;;;;;;;1.00;1.00;;;;;;;;;;6216305;23;20126;-96
2023/08/26 10:00:50;;;;;;;1.10;1.10;;;;;;;;;;6215966;23;20154;-96
2023/08/26 10:03:26;;;;;;;1.00;1.00;;;;;;;;;;6215503;23;20146;-96
2023/08/26 10:13:31;;;;;;;1.10;1.00;;;;;;;;;;6307975;22;20175;-96
2023/08/26 10:36:12;;;;;;;1.30;1.20;;;;;;;;;;6207663;22;20159;-96
2023/08/26 11:13:19;;;;;;;1.42;1.33;;;;;;;;;;6212285;22;20160;-95
